sensor_id;sensor_type;location;lat;lon;timestamp;temperature;humidity
10419;DHT22;5256;48.728;9.140;2023-02-28T00:00:39;-2.80;99.90
10419;DHT22;5256;48.728;9.140;2023-02-28T00:03:05;-2.80;99.90
10419;DHT22;5256;48.728;9.140;2023-02-28T00:05:31;-2.90;99.90
10419;DHT22;5256;48.728;9.140;2023-02-28T00:07:57;-2.90;99.90
10419;DHT22;5256;48.728;9.140;2023-02-28T00:10:25;-2.80;99.90
10419;DHT22;5256;48.728;9.140;2023-02-28T00:12:52;-2.80;99.90
10419;DHT22;5256;48.728;9.140;2023-02-28T00:15:19;-2.80;99.90
10419;DHT22;5256;48.728;9.140;2023-02-28T00:17:45;-2.90;99.90
10419;DHT22;5256;48.728;9.140;2023-02-28T00:20:11;-3.00;99.90
10419;DHT22;5256;48.728;9.140;2023-02-28T00:22:40;-3.10;99.90
10419;DHT22;5256;48.728;9.140;2023-02-28T00:25:06;-3.10;99.90
10419;DHT22;5256;48.728;9.140;2023-02-28T00:27:33;-3.20;99.90
10419;DHT22;5256;48.728;9.140;2023-02-28T00:29:59;-3.30;99.90
10419;DHT22;5256;48.728;9.140;2023-02-28T00:32:26;-3.40;99.90
10419;DHT22;5256;48.728;9.140;2023-02-28T00:34:51;-3.40;99.90
10419;DHT22;5256;48.728;9.140;2023-02-28T00:37:17;-3.40;99.90
10419;DHT22;5256;48.728;9.140;2023-02-28T00:39:42;-3.50;99.90
10419;DHT22;5256;48.728;9.140;2023-02-28T00:42:08;-3.50;99.90
10419;DHT22;5256;48.728;9.140;2023-02-28T00:44:34;-3.50;99.90
10419;DHT22;5256;48.728;9.140;2023-02-28T00:47:00;-3.40;99.90
10419;DHT22;5256;48.728;9.140;2023-02-28T00:49:27;-3.60;99.90
10419;DHT22;5256;48.728;9.140;2023-02-28T00:51:54;-3.60;99.90
10419;DHT22;5256;48.728;9.140;2023-02-28T00:54:19;-3.50;99.90
10419;DHT22;5256;48.728;9.140;2023-02-28T00:56:45;-3.60;99.90
10419;DHT22;5256;48.728;9.140;2023-02-28T00:59:15;-3.60;99.90
10419;DHT22;5256;48.728;9.140;2023-02-28T01:01:42;-3.60;99.90
10419;DHT22;5256;48.728;9.140;2023-02-28T01:04:08;-3.50;99.90
10419;DHT22;5256;48.728;9.140;2023-02-28T01:06:34;-3.50;99.90
10419;DHT22;5256;48.728;9.140;2023-02-28T01:09:00;-3.60;99.90
10419;DHT22;5256;48.728;9.140;2023-02-28T01:11:25;-3.60;99.90
10419;DHT22;5256;48.728;9.140;2023-02-28T01:13:51;-3.60;99.90
10419;DHT22;5256;48.728;9.140;2023-02-28T01:16:17;-3.60;99.90
10419;DHT22;5256;48.728;9.140;2023-02-28T01:18:43;-3.60;99.90
10419;DHT22;5256;48.728;9.140;2023-02-28T01:21:12;-3.60;99.90
10419;DHT22;5256;48.728;9.140;2023-02-28T01:23:38;-3.60;99.90
10419;DHT22;5256;48.728;9.140;2023-02-28T01:26:10;-3.60;99.90
10419;DHT22;5256;48.728;9.140;2023-02-28T01:28:36;-3.60;99.90
10419;DHT22;5256;48.728;9.140;2023-02-28T01:31:02;-3.60;99.90
10419;DHT22;5256;48.728;9.140;2023-02-28T01:33:28;-3.70;99.90
10419;DHT22;5256;48.728;9.140;2023-02-28T01:36:01;-3.70;99.90
10419;DHT22;5256;48.728;9.140;2023-02-28T01:38:27;-3.70;99.90
10419;DHT22;5256;48.728;9.140;2023-02-28T01:40:53;-3.70;99.90
10419;DHT22;5256;48.728;9.140;2023-02-28T01:43:25;-3.70;99.90
10419;DHT22;5256;48.728;9.140;2023-02-28T01:45:52;-3.70;99.90
10419;DHT22;5256;48.728;9.140;2023-02-28T01:48:19;-3.70;99.90
10419;DHT22;5256;48.728;9.140;2023-02-28T01:50:46;-3.70;99.90
10419;DHT22;5256;48.728;9.140;2023-02-28T01:53:16;-3.70;99.90
10419;DHT22;5256;48.728;9.140;2023-02-28T01:55:46;-3.70;99.90
10419;DHT22;5256;48.728;9.140;2023-02-28T01:58:13;-3.80;99.90
10419;DHT22;5256;48.728;9.140;2023-02-28T02:00:38;-3.80;99.90
10419;DHT22;5256;48.728;9.140;2023-02-28T02:03:08;-3.80;99.90
10419;DHT22;5256;48.728;9.140;2023-02-28T02:05:37;-3.80;99.90
10419;DHT22;5256;48.728;9.140;2023-02-28T02:08:06;-3.80;99.90
10419;DHT22;5256;48.728;9.140;2023-02-28T02:10:41;-3.70;99.90
10419;DHT22;5256;48.728;9.140;2023-02-28T02:18:43;-3.70;99.90
10419;DHT22;5256;48.728;9.140;2023-02-28T02:21:36;-3.70;99.90
10419;DHT22;5256;48.728;9.140;2023-02-28T02:32:44;-3.80;99.90
10419;DHT22;5256;48.728;9.140;2023-02-28T02:35:31;-3.80;99.90
10419;DHT22;5256;48.728;9.140;2023-02-28T02:41:28;-3.70;99.90
10419;DHT22;5256;48.728;9.140;2023-02-28T02:46:41;-3.70;99.90
10419;DHT22;5256;48.728;9.140;2023-02-28T02:49:16;-3.60;99.90
10419;DHT22;5256;48.728;9.140;2023-02-28T02:51:46;-3.60;99.90
10419;DHT22;5256;48.728;9.140;2023-02-28T02:54:25;-3.50;99.90
10419;DHT22;5256;48.728;9.140;2023-02-28T02:56:59;-3.50;99.90
10419;DHT22;5256;48.728;9.140;2023-02-28T02:59:28;-3.40;99.90
10419;DHT22;5256;48.728;9.140;2023-02-28T03:02:01;-3.40;99.90
10419;DHT22;5256;48.728;9.140;2023-02-28T03:04:32;-3.40;99.90
10419;DHT22;5256;48.728;9.140;2023-02-28T03:06:58;-3.40;99.90
10419;DHT22;5256;48.728;9.140;2023-02-28T03:09:25;-3.40;99.90
10419;DHT22;5256;48.728;9.140;2023-02-28T03:11:53;-3.40;99.90
10419;DHT22;5256;48.728;9.140;2023-02-28T03:14:40;-3.40;99.90
10419;DHT22;5256;48.728;9.140;2023-02-28T03:17:19;-3.40;99.90
10419;DHT22;5256;48.728;9.140;2023-02-28T03:25:29;-3.30;99.90
10419;DHT22;5256;48.728;9.140;2023-02-28T03:31:27;-3.30;99.90
10419;DHT22;5256;48.728;9.140;2023-02-28T03:34:15;-3.30;99.90
10419;DHT22;5256;48.728;9.140;2023-02-28T03:36:53;-3.30;99.90
10419;DHT22;5256;48.728;9.140;2023-02-28T03:39:24;-3.30;99.90
10419;DHT22;5256;48.728;9.140;2023-02-28T03:42:07;-3.30;99.90
10419;DHT22;5256;48.728;9.140;2023-02-28T03:44:35;-3.20;99.90
10419;DHT22;5256;48.728;9.140;2023-02-28T03:47:21;-3.20;99.90
10419;DHT22;5256;48.728;9.140;2023-02-28T03:49:53;-3.30;99.90
10419;DHT22;5256;48.728;9.140;2023-02-28T03:52:22;-3.20;99.90
10419;DHT22;5256;48.728;9.140;2023-02-28T03:54:52;-3.20;99.90
10419;DHT22;5256;48.728;9.140;2023-02-28T03:57:37;-3.10;99.90
10419;DHT22;5256;48.728;9.140;2023-02-28T04:00:16;-3.20;99.90
10419;DHT22;5256;48.728;9.140;2023-02-28T04:02:43;-3.20;99.90
10419;DHT22;5256;48.728;9.140;2023-02-28T04:05:08;-3.10;99.90
10419;DHT22;5256;48.728;9.140;2023-02-28T04:07:34;-3.20;99.90
10419;DHT22;5256;48.728;9.140;2023-02-28T04:10:00;-3.10;99.90
10419;DHT22;5256;48.728;9.140;2023-02-28T04:12:25;-3.10;99.90
10419;DHT22;5256;48.728;9.140;2023-02-28T04:14:51;-3.10;99.90
10419;DHT22;5256;48.728;9.140;2023-02-28T04:17:17;-3.10;99.90
10419;DHT22;5256;48.728;9.140;2023-02-28T04:19:43;-3.00;99.90
10419;DHT22;5256;48.728;9.140;2023-02-28T04:22:09;-3.00;99.90
10419;DHT22;5256;48.728;9.140;2023-02-28T04:24:35;-3.00;99.90
10419;DHT22;5256;48.728;9.140;2023-02-28T04:27:01;-3.00;99.90
10419;DHT22;5256;48.728;9.140;2023-02-28T04:29:29;-3.00;99.90
10419;DHT22;5256;48.728;9.140;2023-02-28T04:31:55;-3.00;99.90
10419;DHT22;5256;48.728;9.140;2023-02-28T04:34:25;-2.90;99.90
10419;DHT22;5256;48.728;9.140;2023-02-28T04:36:53;-3.00;99.90
10419;DHT22;5256;48.728;9.140;2023-02-28T04:39:21;-2.90;99.90
10419;DHT22;5256;48.728;9.140;2023-02-28T04:41:46;-2.90;99.90
10419;DHT22;5256;48.728;9.140;2023-02-28T04:44:13;-2.90;99.90
10419;DHT22;5256;48.728;9.140;2023-02-28T04:46:39;-2.90;99.90
10419;DHT22;5256;48.728;9.140;2023-02-28T04:49:04;-2.90;99.90
10419;DHT22;5256;48.728;9.140;2023-02-28T04:51:30;-2.90;99.90
10419;DHT22;5256;48.728;9.140;2023-02-28T04:53:56;-2.90;99.90
10419;DHT22;5256;48.728;9.140;2023-02-28T04:56:22;-2.90;99.90
10419;DHT22;5256;48.728;9.140;2023-02-28T04:58:48;-2.80;99.90
10419;DHT22;5256;48.728;9.140;2023-02-28T05:01:32;-2.80;99.90
10419;DHT22;5256;48.728;9.140;2023-02-28T05:04:00;-2.90;99.90
10419;DHT22;5256;48.728;9.140;2023-02-28T05:06:28;-2.90;99.90
10419;DHT22;5256;48.728;9.140;2023-02-28T05:08:54;-2.90;99.90
10419;DHT22;5256;48.728;9.140;2023-02-28T05:13:51;-2.80;99.90
10419;DHT22;5256;48.728;9.140;2023-02-28T05:16:17;-2.80;99.90
10419;DHT22;5256;48.728;9.140;2023-02-28T05:18:42;-2.80;99.90
10419;DHT22;5256;48.728;9.140;2023-02-28T05:21:28;-2.80;99.90
10419;DHT22;5256;48.728;9.140;2023-02-28T05:23:55;-2.80;99.90
10419;DHT22;5256;48.728;9.140;2023-02-28T05:26:22;-2.70;99.90
10419;DHT22;5256;48.728;9.140;2023-02-28T05:28:47;-2.70;99.90
10419;DHT22;5256;48.728;9.140;2023-02-28T05:31:13;-2.70;99.90
10419;DHT22;5256;48.728;9.140;2023-02-28T05:33:39;-2.70;99.90
10419;DHT22;5256;48.728;9.140;2023-02-28T05:36:05;-2.70;99.90
10419;DHT22;5256;48.728;9.140;2023-02-28T05:38:34;-2.70;99.90
10419;DHT22;5256;48.728;9.140;2023-02-28T05:40:59;-2.70;99.90
10419;DHT22;5256;48.728;9.140;2023-02-28T05:43:25;-2.70;99.90
10419;DHT22;5256;48.728;9.140;2023-02-28T05:45:50;-2.70;99.90
10419;DHT22;5256;48.728;9.140;2023-02-28T05:48:16;-2.70;99.90
10419;DHT22;5256;48.728;9.140;2023-02-28T05:50:43;-2.70;99.90
10419;DHT22;5256;48.728;9.140;2023-02-28T05:53:11;-2.70;99.90
10419;DHT22;5256;48.728;9.140;2023-02-28T05:55:36;-2.60;99.90
10419;DHT22;5256;48.728;9.140;2023-02-28T05:58:02;-2.70;99.90
10419;DHT22;5256;48.728;9.140;2023-02-28T06:00:28;-2.70;99.90
10419;DHT22;5256;48.728;9.140;2023-02-28T06:02:53;-2.70;99.90
10419;DHT22;5256;48.728;9.140;2023-02-28T06:05:24;-2.60;99.90
10419;DHT22;5256;48.728;9.140;2023-02-28T06:07:50;-2.60;99.90
10419;DHT22;5256;48.728;9.140;2023-02-28T06:10:16;-2.70;99.90
10419;DHT22;5256;48.728;9.140;2023-02-28T06:12:41;-2.60;99.90
10419;DHT22;5256;48.728;9.140;2023-02-28T06:15:13;-2.60;99.90
10419;DHT22;5256;48.728;9.140;2023-02-28T06:17:40;-2.60;99.90
10419;DHT22;5256;48.728;9.140;2023-02-28T06:20:07;-2.60;99.90
10419;DHT22;5256;48.728;9.140;2023-02-28T06:22:34;-2.60;99.90
10419;DHT22;5256;48.728;9.140;2023-02-28T06:25:00;-2.70;99.90
10419;DHT22;5256;48.728;9.140;2023-02-28T06:27:26;-2.60;99.90
10419;DHT22;5256;48.728;9.140;2023-02-28T06:29:54;-2.70;99.90
10419;DHT22;5256;48.728;9.140;2023-02-28T06:32:21;-2.60;99.90
10419;DHT22;5256;48.728;9.140;2023-02-28T06:34:46;-2.60;99.90
10419;DHT22;5256;48.728;9.140;2023-02-28T06:37:12;-2.50;99.90
10419;DHT22;5256;48.728;9.140;2023-02-28T06:39:37;-2.50;99.90
10419;DHT22;5256;48.728;9.140;2023-02-28T06:42:03;-2.50;99.90
10419;DHT22;5256;48.728;9.140;2023-02-28T06:44:29;-2.40;99.90
10419;DHT22;5256;48.728;9.140;2023-02-28T06:47:04;-2.40;99.90
10419;DHT22;5256;48.728;9.140;2023-02-28T06:49:32;-2.30;99.90
10419;DHT22;5256;48.728;9.140;2023-02-28T06:51:57;-2.30;99.90
10419;DHT22;5256;48.728;9.140;2023-02-28T06:54:23;-2.30;99.90
10419;DHT22;5256;48.728;9.140;2023-02-28T06:56:49;-2.30;99.90
10419;DHT22;5256;48.728;9.140;2023-02-28T06:59:14;-2.30;99.90
10419;DHT22;5256;48.728;9.140;2023-02-28T07:01:40;-2.30;99.90
10419;DHT22;5256;48.728;9.140;2023-02-28T07:04:06;-2.30;99.90
10419;DHT22;5256;48.728;9.140;2023-02-28T07:06:32;-2.30;99.90
10419;DHT22;5256;48.728;9.140;2023-02-28T07:08:58;-2.30;99.90
10419;DHT22;5256;48.728;9.140;2023-02-28T07:11:25;-2.20;99.90
10419;DHT22;5256;48.728;9.140;2023-02-28T07:13:55;-2.20;99.90
10419;DHT22;5256;48.728;9.140;2023-02-28T07:16:21;-2.10;99.90
10419;DHT22;5256;48.728;9.140;2023-02-28T07:18:47;-2.10;99.90
10419;DHT22;5256;48.728;9.140;2023-02-28T07:21:13;-2.10;99.90
10419;DHT22;5256;48.728;9.140;2023-02-28T07:23:39;-2.00;99.90
10419;DHT22;5256;48.728;9.140;2023-02-28T07:26:07;-2.00;99.90
10419;DHT22;5256;48.728;9.140;2023-02-28T07:28:33;-2.00;99.90
10419;DHT22;5256;48.728;9.140;2023-02-28T07:31:06;-2.00;99.90
10419;DHT22;5256;48.728;9.140;2023-02-28T07:33:32;-2.00;99.90
10419;DHT22;5256;48.728;9.140;2023-02-28T07:36:10;-1.90;99.90
10419;DHT22;5256;48.728;9.140;2023-02-28T07:38:43;-1.90;99.90
10419;DHT22;5256;48.728;9.140;2023-02-28T07:41:10;-1.80;99.90
10419;DHT22;5256;48.728;9.140;2023-02-28T07:43:36;-1.80;99.90
10419;DHT22;5256;48.728;9.140;2023-02-28T07:46:06;-1.80;99.90
10419;DHT22;5256;48.728;9.140;2023-02-28T07:48:32;-1.90;99.90
10419;DHT22;5256;48.728;9.140;2023-02-28T07:50:59;-1.90;99.90
10419;DHT22;5256;48.728;9.140;2023-02-28T07:53:25;-1.90;99.90
10419;DHT22;5256;48.728;9.140;2023-02-28T07:55:55;-1.80;99.90
10419;DHT22;5256;48.728;9.140;2023-02-28T07:58:20;-1.80;99.90
10419;DHT22;5256;48.728;9.140;2023-02-28T08:00:46;-1.70;99.90
10419;DHT22;5256;48.728;9.140;2023-02-28T08:03:12;-1.70;99.90
10419;DHT22;5256;48.728;9.140;2023-02-28T08:05:40;-1.70;99.90
10419;DHT22;5256;48.728;9.140;2023-02-28T08:08:07;-1.80;99.90
10419;DHT22;5256;48.728;9.140;2023-02-28T08:10:33;-1.80;99.90
10419;DHT22;5256;48.728;9.140;2023-02-28T08:12:58;-1.70;99.90
10419;DHT22;5256;48.728;9.140;2023-02-28T08:15:24;-1.70;99.90
10419;DHT22;5256;48.728;9.140;2023-02-28T08:17:49;-1.60;99.90
10419;DHT22;5256;48.728;9.140;2023-02-28T08:20:15;-1.70;99.90
10419;DHT22;5256;48.728;9.140;2023-02-28T08:22:40;-1.50;99.90
10419;DHT22;5256;48.728;9.140;2023-02-28T08:25:07;-1.40;99.90
10419;DHT22;5256;48.728;9.140;2023-02-28T08:27:34;-1.50;99.90
10419;DHT22;5256;48.728;9.140;2023-02-28T08:29:59;-1.50;99.90
10419;DHT22;5256;48.728;9.140;2023-02-28T08:32:25;-1.40;99.90
10419;DHT22;5256;48.728;9.140;2023-02-28T08:34:50;-1.40;99.90
10419;DHT22;5256;48.728;9.140;2023-02-28T08:37:16;-1.30;99.90
10419;DHT22;5256;48.728;9.140;2023-02-28T08:39:42;-1.30;99.90
10419;DHT22;5256;48.728;9.140;2023-02-28T08:42:07;-1.20;99.90
10419;DHT22;5256;48.728;9.140;2023-02-28T08:44:33;-1.30;99.90
10419;DHT22;5256;48.728;9.140;2023-02-28T08:46:59;-1.30;99.90
10419;DHT22;5256;48.728;9.140;2023-02-28T08:49:24;-1.30;99.90
10419;DHT22;5256;48.728;9.140;2023-02-28T08:51:50;-1.30;99.90
10419;DHT22;5256;48.728;9.140;2023-02-28T08:54:15;-1.40;99.90
10419;DHT22;5256;48.728;9.140;2023-02-28T08:56:45;-1.30;99.90
10419;DHT22;5256;48.728;9.140;2023-02-28T08:59:10;-1.40;99.90
10419;DHT22;5256;48.728;9.140;2023-02-28T09:01:36;-1.40;99.90
10419;DHT22;5256;48.728;9.140;2023-02-28T09:04:02;-1.40;99.90
10419;DHT22;5256;48.728;9.140;2023-02-28T09:06:28;-1.30;99.90
10419;DHT22;5256;48.728;9.140;2023-02-28T09:08:57;-1.20;99.90
10419;DHT22;5256;48.728;9.140;2023-02-28T09:11:23;-1.20;99.90
10419;DHT22;5256;48.728;9.140;2023-02-28T09:13:49;-1.30;99.90
10419;DHT22;5256;48.728;9.140;2023-02-28T09:16:16;-1.20;99.90
10419;DHT22;5256;48.728;9.140;2023-02-28T09:18:42;-1.20;99.90
10419;DHT22;5256;48.728;9.140;2023-02-28T09:21:14;-1.10;99.90
10419;DHT22;5256;48.728;9.140;2023-02-28T09:23:41;-1.00;99.90
10419;DHT22;5256;48.728;9.140;2023-02-28T09:26:08;-1.00;99.90
10419;DHT22;5256;48.728;9.140;2023-02-28T09:28:37;-1.10;99.90
10419;DHT22;5256;48.728;9.140;2023-02-28T09:31:03;-1.10;99.90
10419;DHT22;5256;48.728;9.140;2023-02-28T09:33:30;-1.10;99.90
10419;DHT22;5256;48.728;9.140;2023-02-28T09:36:00;-1.00;99.90
10419;DHT22;5256;48.728;9.140;2023-02-28T09:38:26;-0.90;99.90
10419;DHT22;5256;48.728;9.140;2023-02-28T09:40:59;-0.90;99.90
10419;DHT22;5256;48.728;9.140;2023-02-28T09:43:33;-0.80;99.90
10419;DHT22;5256;48.728;9.140;2023-02-28T09:48:35;-0.70;99.90
10419;DHT22;5256;48.728;9.140;2023-02-28T09:51:05;-0.70;99.90
10419;DHT22;5256;48.728;9.140;2023-02-28T09:53:38;-0.70;99.90
10419;DHT22;5256;48.728;9.140;2023-02-28T09:56:09;-0.70;99.90
10419;DHT22;5256;48.728;9.140;2023-02-28T09:58:44;-0.50;99.90
10419;DHT22;5256;48.728;9.140;2023-02-28T10:01:31;-0.60;99.90
10419;DHT22;5256;48.728;9.140;2023-02-28T10:06:49;-0.40;99.90
10419;DHT22;5256;48.728;9.140;2023-02-28T10:09:22;-0.10;99.90
10419;DHT22;5256;48.728;9.140;2023-02-28T10:11:55;0.00;99.90
10419;DHT22;5256;48.728;9.140;2023-02-28T10:14:24;0.10;99.90
10419;DHT22;5256;48.728;9.140;2023-02-28T10:16:58;0.10;99.90
10419;DHT22;5256;48.728;9.140;2023-02-28T10:19:42;0.00;99.90
10419;DHT22;5256;48.728;9.140;2023-02-28T10:24:50;0.20;99.90
10419;DHT22;5256;48.728;9.140;2023-02-28T10:27:17;0.20;99.90
10419;DHT22;5256;48.728;9.140;2023-02-28T10:29:46;0.30;99.90
10419;DHT22;5256;48.728;9.140;2023-02-28T10:32:15;0.30;99.90
10419;DHT22;5256;48.728;9.140;2023-02-28T10:34:41;0.20;99.90
10419;DHT22;5256;48.728;9.140;2023-02-28T10:37:07;0.30;99.90
10419;DHT22;5256;48.728;9.140;2023-02-28T10:39:44;0.40;99.90
10419;DHT22;5256;48.728;9.140;2023-02-28T10:42:30;0.40;99.90
10419;DHT22;5256;48.728;9.140;2023-02-28T10:47:34;0.80;99.90
10419;DHT22;5256;48.728;9.140;2023-02-28T10:50:00;1.00;99.90
10419;DHT22;5256;48.728;9.140;2023-02-28T10:52:37;1.00;99.90
10419;DHT22;5256;48.728;9.140;2023-02-28T10:55:24;1.00;99.90
10419;DHT22;5256;48.728;9.140;2023-02-28T10:57:50;1.20;99.90
10419;DHT22;5256;48.728;9.140;2023-02-28T11:00:22;1.20;99.90
10419;DHT22;5256;48.728;9.140;2023-02-28T11:02:48;1.10;99.90
10419;DHT22;5256;48.728;9.140;2023-02-28T11:05:35;1.20;99.90
10419;DHT22;5256;48.728;9.140;2023-02-28T11:08:12;1.10;99.90
10419;DHT22;5256;48.728;9.140;2023-02-28T11:10:39;1.10;99.90
10419;DHT22;5256;48.728;9.140;2023-02-28T11:13:05;1.20;99.90
10419;DHT22;5256;48.728;9.140;2023-02-28T11:15:33;1.30;99.90
10419;DHT22;5256;48.728;9.140;2023-02-28T11:18:21;1.20;99.90
10419;DHT22;5256;48.728;9.140;2023-02-28T11:20:53;1.40;99.90
10419;DHT22;5256;48.728;9.140;2023-02-28T11:23:19;1.40;99.90
10419;DHT22;5256;48.728;9.140;2023-02-28T11:25:52;1.30;99.90
10419;DHT22;5256;48.728;9.140;2023-02-28T11:28:38;1.40;99.90
10419;DHT22;5256;48.728;9.140;2023-02-28T11:33:45;1.30;99.90
10419;DHT22;5256;48.728;9.140;2023-02-28T11:36:29;1.30;99.90
10419;DHT22;5256;48.728;9.140;2023-02-28T11:38:58;1.40;99.90
10419;DHT22;5256;48.728;9.140;2023-02-28T11:41:45;1.40;99.90
10419;DHT22;5256;48.728;9.140;2023-02-28T11:44:39;1.20;99.90
10419;DHT22;5256;48.728;9.140;2023-02-28T11:47:17;1.10;99.90
10419;DHT22;5256;48.728;9.140;2023-02-28T11:52:45;0.90;99.90
10419;DHT22;5256;48.728;9.140;2023-02-28T11:55:31;0.90;99.90
10419;DHT22;5256;48.728;9.140;2023-02-28T12:06:42;1.60;99.90
10419;DHT22;5256;48.728;9.140;2023-02-28T12:12:04;1.90;99.90
10419;DHT22;5256;48.728;9.140;2023-02-28T12:14:53;2.00;99.90
10419;DHT22;5256;48.728;9.140;2023-02-28T12:26:12;2.40;99.90
10419;DHT22;5256;48.728;9.140;2023-02-28T12:28:49;2.40;99.90
10419;DHT22;5256;48.728;9.140;2023-02-28T12:31:38;2.40;99.90
10419;DHT22;5256;48.728;9.140;2023-02-28T12:34:10;2.40;99.90
10419;DHT22;5256;48.728;9.140;2023-02-28T12:36:37;2.30;99.90
10419;DHT22;5256;48.728;9.140;2023-02-28T12:39:29;2.10;99.90
10419;DHT22;5256;48.728;9.140;2023-02-28T12:42:03;2.10;99.90
10419;DHT22;5256;48.728;9.140;2023-02-28T12:44:46;2.20;99.90
10419;DHT22;5256;48.728;9.140;2023-02-28T12:47:16;2.30;99.90
10419;DHT22;5256;48.728;9.140;2023-02-28T12:50:07;2.60;99.90
10419;DHT22;5256;48.728;9.140;2023-02-28T12:53:00;2.60;99.90
10419;DHT22;5256;48.728;9.140;2023-02-28T12:55:44;2.80;99.90
10419;DHT22;5256;48.728;9.140;2023-02-28T12:58:33;2.90;99.90
10419;DHT22;5256;48.728;9.140;2023-02-28T13:07:13;2.60;99.90
10419;DHT22;5256;48.728;9.140;2023-02-28T13:09:55;2.70;99.90
10419;DHT22;5256;48.728;9.140;2023-02-28T13:12:21;2.70;99.90
10419;DHT22;5256;48.728;9.140;2023-02-28T13:14:49;2.70;99.90
10419;DHT22;5256;48.728;9.140;2023-02-28T13:17:20;2.70;99.90
10419;DHT22;5256;48.728;9.140;2023-02-28T13:22:43;2.70;99.90
10419;DHT22;5256;48.728;9.140;2023-02-28T13:28:01;2.70;99.90
10419;DHT22;5256;48.728;9.140;2023-02-28T13:38:48;3.10;99.90
10419;DHT22;5256;48.728;9.140;2023-02-28T13:44:09;3.10;99.90
10419;DHT22;5256;48.728;9.140;2023-02-28T13:47:15;3.30;99.90
10419;DHT22;5256;48.728;9.140;2023-02-28T13:51:56;3.30;99.90
10419;DHT22;5256;48.728;9.140;2023-02-28T13:54:56;3.40;99.90
10419;DHT22;5256;48.728;9.140;2023-02-28T13:57:47;3.50;99.90
10419;DHT22;5256;48.728;9.140;2023-02-28T14:00:35;3.70;99.90
10419;DHT22;5256;48.728;9.140;2023-02-28T14:03:24;3.70;99.90
10419;DHT22;5256;48.728;9.140;2023-02-28T14:09:02;3.60;99.90
10419;DHT22;5256;48.728;9.140;2023-02-28T14:11:40;3.70;99.90
10419;DHT22;5256;48.728;9.140;2023-02-28T14:14:08;3.70;99.90
10419;DHT22;5256;48.728;9.140;2023-02-28T14:16:46;3.60;99.90
10419;DHT22;5256;48.728;9.140;2023-02-28T14:19:27;3.70;99.90
10419;DHT22;5256;48.728;9.140;2023-02-28T14:25:31;3.70;99.90
10419;DHT22;5256;48.728;9.140;2023-02-28T14:31:15;3.90;99.90
10419;DHT22;5256;48.728;9.140;2023-02-28T14:36:39;3.90;99.90
10419;DHT22;5256;48.728;9.140;2023-02-28T14:39:10;3.70;99.90
10419;DHT22;5256;48.728;9.140;2023-02-28T14:41:39;3.70;99.90
10419;DHT22;5256;48.728;9.140;2023-02-28T14:46:49;3.70;99.90
10419;DHT22;5256;48.728;9.140;2023-02-28T14:49:30;3.80;99.90
10419;DHT22;5256;48.728;9.140;2023-02-28T14:54:35;3.80;99.90
10419;DHT22;5256;48.728;9.140;2023-02-28T14:57:01;3.80;99.90
10419;DHT22;5256;48.728;9.140;2023-02-28T14:59:30;3.80;99.90
10419;DHT22;5256;48.728;9.140;2023-02-28T15:02:15;3.80;99.90
10419;DHT22;5256;48.728;9.140;2023-02-28T15:04:41;3.90;99.90
10419;DHT22;5256;48.728;9.140;2023-02-28T15:07:13;3.90;99.90
10419;DHT22;5256;48.728;9.140;2023-02-28T15:09:39;3.90;99.90
10419;DHT22;5256;48.728;9.140;2023-02-28T15:12:05;3.70;99.90
10419;DHT22;5256;48.728;9.140;2023-02-28T15:14:31;3.80;99.90
10419;DHT22;5256;48.728;9.140;2023-02-28T15:17:01;3.70;99.90
10419;DHT22;5256;48.728;9.140;2023-02-28T15:19:32;3.80;99.90
10419;DHT22;5256;48.728;9.140;2023-02-28T15:22:02;3.70;99.90
10419;DHT22;5256;48.728;9.140;2023-02-28T15:24:39;3.90;99.90
10419;DHT22;5256;48.728;9.140;2023-02-28T15:27:13;4.00;99.90
10419;DHT22;5256;48.728;9.140;2023-02-28T15:29:48;4.10;99.90
10419;DHT22;5256;48.728;9.140;2023-02-28T15:34:47;4.10;99.90
10419;DHT22;5256;48.728;9.140;2023-02-28T15:39:57;4.40;99.90
10419;DHT22;5256;48.728;9.140;2023-02-28T15:42:30;4.70;99.80
10419;DHT22;5256;48.728;9.140;2023-02-28T15:44:57;4.80;99.40
10419;DHT22;5256;48.728;9.140;2023-02-28T15:47:24;4.80;99.40
10419;DHT22;5256;48.728;9.140;2023-02-28T15:49:52;4.50;99.90
10419;DHT22;5256;48.728;9.140;2023-02-28T15:52:28;4.30;99.90
10419;DHT22;5256;48.728;9.140;2023-02-28T15:54:57;4.30;99.80
10419;DHT22;5256;48.728;9.140;2023-02-28T15:57:25;4.10;99.90
10419;DHT22;5256;48.728;9.140;2023-02-28T15:59:56;4.00;99.90
10419;DHT22;5256;48.728;9.140;2023-02-28T16:07:34;3.80;99.90
10419;DHT22;5256;48.728;9.140;2023-02-28T16:10:00;3.80;99.90
10419;DHT22;5256;48.728;9.140;2023-02-28T16:12:31;3.90;99.90
10419;DHT22;5256;48.728;9.140;2023-02-28T16:14:59;3.70;99.90
10419;DHT22;5256;48.728;9.140;2023-02-28T16:17:29;3.70;99.90
10419;DHT22;5256;48.728;9.140;2023-02-28T16:19:56;3.50;99.90
10419;DHT22;5256;48.728;9.140;2023-02-28T16:22:23;3.40;99.90
10419;DHT22;5256;48.728;9.140;2023-02-28T16:24:48;3.20;99.90
10419;DHT22;5256;48.728;9.140;2023-02-28T16:27:21;3.20;99.90
10419;DHT22;5256;48.728;9.140;2023-02-28T16:29:47;3.10;99.90
10419;DHT22;5256;48.728;9.140;2023-02-28T16:32:14;3.10;99.90
10419;DHT22;5256;48.728;9.140;2023-02-28T16:34:41;3.00;99.90
10419;DHT22;5256;48.728;9.140;2023-02-28T16:37:13;3.00;99.90
10419;DHT22;5256;48.728;9.140;2023-02-28T16:39:40;2.90;99.90
10419;DHT22;5256;48.728;9.140;2023-02-28T16:42:05;2.80;99.90
10419;DHT22;5256;48.728;9.140;2023-02-28T16:44:34;2.80;99.90
10419;DHT22;5256;48.728;9.140;2023-02-28T16:47:01;2.70;99.90
10419;DHT22;5256;48.728;9.140;2023-02-28T16:49:27;2.70;99.90
10419;DHT22;5256;48.728;9.140;2023-02-28T16:51:53;2.60;99.90
10419;DHT22;5256;48.728;9.140;2023-02-28T16:54:18;2.50;99.90
10419;DHT22;5256;48.728;9.140;2023-02-28T16:56:46;2.50;99.90
10419;DHT22;5256;48.728;9.140;2023-02-28T16:59:12;2.40;99.90
10419;DHT22;5256;48.728;9.140;2023-02-28T17:01:38;2.30;99.90
10419;DHT22;5256;48.728;9.140;2023-02-28T17:04:04;2.30;99.90
10419;DHT22;5256;48.728;9.140;2023-02-28T17:06:30;2.20;99.90
10419;DHT22;5256;48.728;9.140;2023-02-28T17:08:57;2.20;99.90
10419;DHT22;5256;48.728;9.140;2023-02-28T17:11:24;2.10;99.90
10419;DHT22;5256;48.728;9.140;2023-02-28T17:13:50;2.10;99.90
10419;DHT22;5256;48.728;9.140;2023-02-28T17:16:28;2.00;99.90
10419;DHT22;5256;48.728;9.140;2023-02-28T17:18:58;2.00;99.90
10419;DHT22;5256;48.728;9.140;2023-02-28T17:21:24;1.90;99.90
10419;DHT22;5256;48.728;9.140;2023-02-28T17:23:50;1.90;99.90
10419;DHT22;5256;48.728;9.140;2023-02-28T17:26:17;1.80;99.90
10419;DHT22;5256;48.728;9.140;2023-02-28T17:28:45;1.80;99.90
10419;DHT22;5256;48.728;9.140;2023-02-28T17:31:11;1.70;99.90
10419;DHT22;5256;48.728;9.140;2023-02-28T17:33:37;1.70;99.90
10419;DHT22;5256;48.728;9.140;2023-02-28T17:36:03;1.70;99.90
10419;DHT22;5256;48.728;9.140;2023-02-28T17:38:29;1.70;99.90
10419;DHT22;5256;48.728;9.140;2023-02-28T17:40:55;1.70;99.90
10419;DHT22;5256;48.728;9.140;2023-02-28T17:43:25;1.60;99.90
10419;DHT22;5256;48.728;9.140;2023-02-28T17:45:50;1.60;99.90
10419;DHT22;5256;48.728;9.140;2023-02-28T17:48:16;1.50;99.90
10419;DHT22;5256;48.728;9.140;2023-02-28T17:50:42;1.50;99.90
10419;DHT22;5256;48.728;9.140;2023-02-28T17:53:07;1.50;99.90
10419;DHT22;5256;48.728;9.140;2023-02-28T17:55:33;1.40;99.90
10419;DHT22;5256;48.728;9.140;2023-02-28T17:57:59;1.40;99.90
10419;DHT22;5256;48.728;9.140;2023-02-28T18:00:25;1.30;99.90
10419;DHT22;5256;48.728;9.140;2023-02-28T18:02:51;1.30;99.90
10419;DHT22;5256;48.728;9.140;2023-02-28T18:05:17;1.30;99.90
10419;DHT22;5256;48.728;9.140;2023-02-28T18:07:43;1.20;99.90
10419;DHT22;5256;48.728;9.140;2023-02-28T18:10:34;1.10;99.90